createdAt,value
2019-05-11T00:00:33.365Z,98429.81
2019-05-11T00:03:01.801Z,98421.02
2019-05-11T00:05:30.214Z,98412.78
2019-05-11T00:07:58.637Z,98409.79
2019-05-11T00:10:27.052Z,98407.91
2019-05-11T00:12:55.479Z,98404.77
2019-05-11T00:15:23.875Z,98404.43
2019-05-11T00:17:52.288Z,98395.89
2019-05-11T00:20:20.698Z,98389.80
2019-05-11T00:22:49.893Z,98402.38
2019-05-11T00:25:18.313Z,98401.08
2019-05-11T00:27:46.729Z,98397.59
2019-05-11T00:30:15.368Z,98389.81
2019-05-11T00:32:43.806Z,98389.81
2019-05-11T00:35:12.385Z,98389.42
2019-05-11T00:37:40.873Z,98389.81
2019-05-11T00:40:14.228Z,98386.95
2019-05-11T00:42:40.028Z,98390.72
2019-05-11T00:45:08.641Z,98400.02
2019-05-11T00:47:37.031Z,98407.48
2019-05-11T00:50:08.480Z,98403.94
2019-05-11T00:52:36.972Z,98396.04
2019-05-11T00:55:08.580Z,98405.01
2019-05-11T00:57:37.026Z,98399.77
2019-05-11T01:00:08.015Z,98392.64
2019-05-11T01:02:36.431Z,98392.59
2019-05-11T01:05:06.834Z,98388.38
2019-05-11T01:07:35.338Z,98392.53
2019-05-11T01:10:21.768Z,98395.41
2019-05-11T01:12:37.838Z,98395.59
2019-05-11T01:15:06.727Z,98388.97
2019-05-11T01:17:35.139Z,98388.97
2019-05-11T01:20:04.805Z,98390.48
2019-05-11T01:22:33.235Z,98378.12
2019-05-11T01:25:01.682Z,98374.67
2019-05-11T01:27:30.120Z,98366.47
2019-05-11T01:29:58.557Z,98370.92
2019-05-11T01:32:26.988Z,98358.95
2019-05-11T01:34:55.412Z,98349.12
2019-05-11T01:37:23.827Z,98346.59
2019-05-11T01:39:52.278Z,98345.39
2019-05-11T01:42:20.789Z,98359.67
2019-05-11T01:44:49.253Z,98364.89
2019-05-11T01:47:17.664Z,98355.59
2019-05-11T01:49:46.146Z,98357.13
2019-05-11T01:52:14.653Z,98359.84
2019-05-11T01:54:43.082Z,98362.09
2019-05-11T01:57:11.495Z,98358.27
2019-05-11T01:59:39.899Z,98354.87
2019-05-11T02:02:08.328Z,98351.60
2019-05-11T02:04:36.783Z,98344.69
2019-05-11T02:07:05.387Z,98347.18
2019-05-11T02:09:33.799Z,98343.30
2019-05-11T02:12:02.242Z,98336.81
2019-05-11T02:14:30.725Z,98341.68
2019-05-11T02:16:59.174Z,98337.80
2019-05-11T02:19:27.564Z,98336.97
2019-05-11T02:21:56.024Z,98336.59
2019-05-11T02:24:24.547Z,98331.59
2019-05-11T02:26:52.972Z,98330.95
2019-05-11T02:29:21.402Z,98335.97
2019-05-11T02:31:49.841Z,98337.59
2019-05-11T02:34:18.256Z,98343.73
2019-05-11T02:36:46.649Z,98340.33
2019-05-11T02:39:15.099Z,98341.63
2019-05-11T02:41:43.531Z,98339.09
2019-05-11T02:44:11.920Z,98344.11
2019-05-11T02:46:40.373Z,98343.84
2019-05-11T02:49:08.786Z,98340.72
2019-05-11T02:51:38.353Z,98342.60
2019-05-11T02:54:06.752Z,98350.44
2019-05-11T02:56:35.196Z,98354.20
2019-05-11T02:59:03.719Z,98352.86
2019-05-11T03:01:32.136Z,98350.33
2019-05-11T03:04:00.550Z,98351.23
2019-05-11T03:06:28.940Z,98343.90
2019-05-11T03:08:57.372Z,98338.45
2019-05-11T03:11:25.780Z,98330.66
2019-05-11T03:13:54.196Z,98329.52
2019-05-11T03:16:22.614Z,98323.60
2019-05-11T03:18:51.309Z,98329.31
2019-05-11T03:21:19.733Z,98335.32
2019-05-11T03:23:48.145Z,98336.23
2019-05-11T03:26:16.584Z,98339.20
2019-05-11T03:28:45.064Z,98333.84
2019-05-11T03:31:13.500Z,98333.63
2019-05-11T03:33:41.904Z,98331.91
2019-05-11T03:36:10.754Z,98319.91
2019-05-11T03:38:39.187Z,98317.20
2019-05-11T03:41:09.146Z,98314.34
2019-05-11T03:43:37.574Z,98318.50
2019-05-11T03:46:06.031Z,98322.44
2019-05-11T03:48:34.468Z,98324.84
2019-05-11T03:51:02.914Z,98323.50
2019-05-11T03:53:31.313Z,98324.75
2019-05-11T03:55:59.722Z,98319.52
2019-05-11T03:58:28.158Z,98319.61
2019-05-11T04:00:56.646Z,98321.96
2019-05-11T04:03:25.075Z,98319.36
2019-05-11T04:05:53.492Z,98315.06
2019-05-11T04:08:21.951Z,98310.89
2019-05-11T04:10:50.346Z,98310.83
2019-05-11T04:13:18.735Z,98315.59
2019-05-11T04:15:47.179Z,98317.97
2019-05-11T04:18:15.582Z,98321.41
2019-05-11T04:20:43.968Z,98314.55
2019-05-11T04:23:12.389Z,98308.10
2019-05-11T04:25:40.815Z,98310.67
2019-05-11T04:28:09.269Z,98306.73
2019-05-11T04:30:37.652Z,98312.50
2019-05-11T04:33:06.061Z,98307.22
2019-05-11T04:35:34.468Z,98306.73
2019-05-11T04:38:02.884Z,98305.26
2019-05-11T04:40:31.299Z,98312.75
2019-05-11T04:42:59.764Z,98309.37
2019-05-11T04:45:28.177Z,98308.23
2019-05-11T04:47:56.592Z,98302.75
2019-05-11T04:50:25.011Z,98302.06
2019-05-11T04:52:53.474Z,98299.16
2019-05-11T04:55:22.180Z,98304.02
2019-05-11T04:57:50.634Z,98299.05
2019-05-11T05:00:19.576Z,98312.27
2019-05-11T05:02:48.003Z,98312.78
2019-05-11T05:05:16.459Z,98309.84
2019-05-11T05:07:48.991Z,98306.65
2019-05-11T05:10:19.858Z,98308.06
2019-05-11T05:12:50.360Z,98308.77
2019-05-11T05:15:15.272Z,98304.55
2019-05-11T05:17:43.695Z,98304.94
2019-05-11T05:20:12.388Z,98300.56
2019-05-11T05:22:40.824Z,98300.56
2019-05-11T05:25:09.377Z,98303.74
2019-05-11T05:27:37.821Z,98308.23
2019-05-11T05:30:07.405Z,98302.66
2019-05-11T05:32:35.976Z,98301.27
2019-05-11T05:35:05.917Z,98304.50
2019-05-11T05:37:34.317Z,98304.02
2019-05-11T05:40:02.739Z,98309.69
2019-05-11T05:42:31.166Z,98307.36
2019-05-11T05:44:59.607Z,98314.33
2019-05-11T05:47:28.025Z,98316.16
2019-05-11T05:49:56.466Z,98317.13
2019-05-11T05:52:24.948Z,98315.07
2019-05-11T05:54:53.362Z,98312.05
2019-05-11T05:57:22.522Z,98310.65
2019-05-11T05:59:50.971Z,98315.95
2019-05-11T06:02:19.400Z,98310.44
2019-05-11T06:04:47.827Z,98318.59
2019-05-11T06:07:16.263Z,98320.32
2019-05-11T06:12:11.827Z,98321.99
2019-05-11T06:14:40.216Z,98314.87
2019-05-11T06:17:08.649Z,98312.66
2019-05-11T06:19:37.069Z,98315.72
2019-05-11T06:22:05.496Z,98319.94
2019-05-11T06:24:33.890Z,98320.10
2019-05-11T06:27:02.311Z,98323.11
2019-05-11T06:29:30.762Z,98324.32
2019-05-11T06:31:59.189Z,98315.56
2019-05-11T06:34:27.617Z,98323.82
2019-05-11T06:36:56.045Z,98323.18
2019-05-11T06:39:24.471Z,98317.49
2019-05-11T06:41:53.011Z,98320.25
2019-05-11T06:44:21.410Z,98321.00
2019-05-11T06:46:50.766Z,98314.85
2019-05-11T06:49:19.165Z,98323.31
2019-05-11T06:51:47.594Z,98328.14
2019-05-11T06:54:16.022Z,98330.07
2019-05-11T06:56:44.436Z,98334.62
2019-05-11T06:59:12.950Z,98331.44
2019-05-11T07:01:41.423Z,98329.92
2019-05-11T07:04:09.840Z,98327.97
2019-05-11T07:06:38.290Z,98332.84
2019-05-11T07:09:07.745Z,98331.87
2019-05-11T07:11:36.255Z,98340.60
2019-05-11T07:14:19.211Z,98337.47
2019-05-11T07:16:35.058Z,98340.66
2019-05-11T07:19:03.659Z,98339.84
2019-05-11T07:21:33.707Z,98341.84
2019-05-11T07:24:03.059Z,98347.13
2019-05-11T07:26:31.488Z,98355.60
2019-05-11T07:28:59.911Z,98356.06
2019-05-11T07:31:28.354Z,98358.40
2019-05-11T07:33:58.709Z,98357.47
2019-05-11T07:36:28.255Z,98359.42
2019-05-11T07:38:58.040Z,98362.59
2019-05-11T07:41:28.119Z,98361.59
2019-05-11T07:43:58.879Z,98366.34
2019-05-11T07:46:28.790Z,98362.08
2019-05-11T07:48:58.510Z,98365.92
2019-05-11T07:51:28.768Z,98361.12
2019-05-11T07:53:57.921Z,98373.70
2019-05-11T07:56:28.456Z,98378.72
2019-05-11T07:58:58.111Z,98376.29
2019-05-11T08:01:28.144Z,98380.77
2019-05-11T08:03:58.582Z,98374.34
2019-05-11T08:06:28.581Z,98375.20
2019-05-11T08:08:58.752Z,98382.17
2019-05-11T08:11:31.106Z,98377.04
2019-05-11T08:13:58.396Z,98383.68
2019-05-11T08:16:28.527Z,98386.06
2019-05-11T08:18:58.863Z,98381.03
2019-05-11T08:21:28.414Z,98391.11
2019-05-11T08:23:58.730Z,98391.55
2019-05-11T08:26:28.331Z,98394.28
2019-05-11T08:28:57.873Z,98402.48
2019-05-11T08:31:27.939Z,98404.98
2019-05-11T08:33:58.305Z,98409.20
2019-05-11T08:36:28.562Z,98408.16
2019-05-11T08:38:58.547Z,98405.96
2019-05-11T08:41:27.998Z,98411.19
2019-05-11T08:43:58.712Z,98418.03
2019-05-11T08:46:27.904Z,98422.19
2019-05-11T08:48:56.476Z,98419.23
2019-05-11T08:51:24.906Z,98430.44
2019-05-11T08:53:54.085Z,98423.63
2019-05-11T08:56:22.514Z,98433.09
2019-05-11T08:58:50.937Z,98442.37
2019-05-11T09:01:19.334Z,98442.67
2019-05-11T09:03:48.033Z,98446.64
2019-05-11T09:06:17.981Z,98448.92
2019-05-11T09:08:49.134Z,98445.64
2019-05-11T09:11:19.000Z,98456.38
2019-05-11T09:13:48.843Z,98458.40
2019-05-11T09:16:18.967Z,98457.67
2019-05-11T09:18:48.091Z,98461.73
2019-05-11T09:21:18.943Z,98466.14
2019-05-11T09:23:48.627Z,98467.67
2019-05-11T09:26:18.083Z,98473.88
2019-05-11T09:28:47.606Z,98475.18
2019-05-11T09:31:18.615Z,98480.50
2019-05-11T09:33:48.031Z,98484.83
2019-05-11T09:36:18.068Z,98486.88
2019-05-11T09:38:49.001Z,98495.64
2019-05-11T09:41:18.057Z,98491.56
2019-05-11T09:43:48.349Z,98504.42
2019-05-11T09:46:18.917Z,98503.50
2019-05-11T09:48:48.360Z,98505.30
2019-05-11T09:51:18.383Z,98511.19
2019-05-11T09:53:48.327Z,98519.61
2019-05-11T09:56:18.333Z,98527.20
2019-05-11T09:58:47.971Z,98529.25
2019-05-11T10:01:18.229Z,98528.30
2019-05-11T10:03:48.225Z,98529.02
2019-05-11T10:06:18.997Z,98536.61
2019-05-11T10:08:48.786Z,98540.72
2019-05-11T10:11:18.993Z,98553.52
2019-05-11T10:13:47.834Z,98544.16
2019-05-11T10:16:17.896Z,98545.23
2019-05-11T10:18:48.866Z,98549.55
2019-05-11T10:21:18.735Z,98559.64
2019-05-11T10:23:48.954Z,98557.30
2019-05-11T10:26:18.744Z,98562.17
2019-05-11T10:28:48.206Z,98566.62
2019-05-11T10:31:18.087Z,98562.17
2019-05-11T10:33:48.921Z,98567.81
2019-05-11T10:36:18.937Z,98584.00
2019-05-11T10:38:48.673Z,98578.91
2019-05-11T10:41:18.115Z,98578.17
2019-05-11T10:43:48.876Z,98584.56
2019-05-11T10:46:23.123Z,98593.39
2019-05-11T10:48:48.155Z,98595.61
2019-05-11T10:51:18.428Z,98587.99
2019-05-11T10:53:51.628Z,98593.22
2019-05-11T10:56:17.850Z,98596.95
2019-05-11T10:58:48.220Z,98600.22
2019-05-11T11:01:18.102Z,98605.39
2019-05-11T11:03:48.409Z,98606.06
2019-05-11T11:06:18.798Z,98601.64
2019-05-11T11:08:48.641Z,98609.33
2019-05-11T11:11:18.470Z,98612.51
2019-05-11T11:13:47.988Z,98612.86
2019-05-11T11:16:32.690Z,98615.34
2019-05-11T11:18:48.572Z,98621.17
2019-05-11T11:21:22.403Z,98624.91
2019-05-11T11:23:48.018Z,98623.28
2019-05-11T11:26:18.533Z,98640.27
2019-05-11T11:28:47.708Z,98636.33
2019-05-11T11:31:18.393Z,98646.16
2019-05-11T11:33:48.623Z,98645.85
2019-05-11T11:36:17.890Z,98655.72
2019-05-11T11:38:47.773Z,98650.00
2019-05-11T11:41:18.632Z,98656.33
2019-05-11T11:43:48.281Z,98648.83
2019-05-11T11:46:18.866Z,98644.73
2019-05-11T11:48:48.836Z,98643.56
2019-05-11T11:51:18.786Z,98649.65
2019-05-11T11:53:47.951Z,98660.03
2019-05-11T11:56:18.876Z,98666.92
2019-05-11T11:58:48.825Z,98665.11
2019-05-11T12:01:18.926Z,98668.69
2019-05-11T12:03:48.718Z,98671.06
2019-05-11T12:06:18.390Z,98668.70
2019-05-11T12:08:49.784Z,98668.84
2019-05-11T12:11:18.749Z,98669.56
2019-05-11T12:13:47.737Z,98675.52
2019-05-11T12:16:18.032Z,98678.70
2019-05-11T12:18:48.734Z,98687.98
2019-05-11T12:21:18.530Z,98679.14
2019-05-11T12:23:48.515Z,98682.87
2019-05-11T12:26:17.819Z,98690.77
2019-05-11T12:28:48.691Z,98689.97
2019-05-11T12:31:18.436Z,98692.39
2019-05-11T12:33:48.291Z,98695.38
2019-05-11T12:36:18.775Z,98700.42
2019-05-11T12:38:48.907Z,98703.23
2019-05-11T12:41:19.109Z,98699.64
2019-05-11T12:43:48.970Z,98703.59
2019-05-11T12:46:18.824Z,98715.31
2019-05-11T12:48:48.427Z,98718.13
2019-05-11T12:51:18.726Z,98723.95
2019-05-11T12:53:47.732Z,98727.28
2019-05-11T12:56:18.751Z,98733.88
2019-05-11T12:58:49.125Z,98730.71
2019-05-11T13:01:18.824Z,98740.30
2019-05-11T13:03:49.284Z,98744.30
2019-05-11T13:06:19.028Z,98749.38
2019-05-11T13:08:48.320Z,98753.41
2019-05-11T13:11:18.683Z,98762.11
2019-05-11T13:13:48.482Z,98769.48
2019-05-11T13:16:18.302Z,98763.34
2019-05-11T13:18:48.798Z,98773.71
2019-05-11T13:21:18.363Z,98775.81
2019-05-11T13:23:48.905Z,98782.97
2019-05-11T13:26:18.044Z,98788.67
2019-05-11T13:28:48.505Z,98784.77
2019-05-11T13:31:18.672Z,98791.45
2019-05-11T13:33:47.959Z,98794.16
2019-05-11T13:36:18.629Z,98802.63
2019-05-11T13:38:48.405Z,98809.48
2019-05-11T13:41:18.874Z,98825.78
2019-05-11T13:43:48.602Z,98828.56
2019-05-11T13:46:18.093Z,98833.19
2019-05-11T13:48:47.741Z,98845.59
2019-05-11T13:51:18.299Z,98833.63
2019-05-11T13:53:48.254Z,98843.74
2019-05-11T13:56:18.448Z,98849.63
2019-05-11T13:58:48.786Z,98852.50
2019-05-11T14:01:18.448Z,98861.00
2019-05-11T14:03:48.429Z,98877.22
2019-05-11T14:06:18.371Z,98876.86
2019-05-11T14:08:48.171Z,98886.67
2019-05-11T14:11:18.138Z,98886.94
2019-05-11T14:13:48.045Z,98891.38
2019-05-11T14:16:18.667Z,98899.14
2019-05-11T14:18:48.864Z,98902.41
2019-05-11T14:21:18.563Z,98901.69
2019-05-11T14:23:48.413Z,98908.53
2019-05-11T14:26:19.261Z,98914.67
2019-05-11T14:28:47.957Z,98920.86
2019-05-11T14:31:18.563Z,98920.20
2019-05-11T14:33:48.692Z,98927.24
2019-05-11T14:36:18.553Z,98937.65
2019-05-11T14:38:48.702Z,98944.23
2019-05-11T14:41:18.186Z,98944.23
2019-05-11T14:43:48.887Z,98950.13
2019-05-11T14:46:18.146Z,98961.68
2019-05-11T14:48:48.173Z,98962.45
2019-05-11T14:51:18.102Z,98963.37
2019-05-11T14:53:48.130Z,98979.00
2019-05-11T14:56:19.087Z,98976.50
2019-05-11T14:58:49.033Z,98984.04
2019-05-11T15:01:18.339Z,98986.45
2019-05-11T15:03:48.561Z,98991.00
2019-05-11T15:06:18.844Z,98990.64
2019-05-11T15:08:47.962Z,98996.00
2019-05-11T15:11:18.905Z,99005.51
2019-05-11T15:13:48.784Z,99000.17
2019-05-11T15:16:18.715Z,99006.94
2019-05-11T15:18:48.501Z,99007.77
2019-05-11T15:21:18.981Z,99006.06
2019-05-11T15:23:47.864Z,99006.04
2019-05-11T15:26:18.511Z,99008.41
2019-05-11T15:28:48.629Z,99005.22
2019-05-11T15:31:21.862Z,99016.34
2019-05-11T15:33:48.827Z,99029.41
2019-05-11T15:36:19.044Z,99041.77
2019-05-11T15:38:48.104Z,99042.97
2019-05-11T15:41:17.703Z,99055.84
2019-05-11T15:43:48.070Z,99055.67
2019-05-11T15:46:19.496Z,99063.61
2019-05-11T15:48:56.696Z,99055.53
2019-05-11T15:51:18.840Z,99055.83
2019-05-11T15:53:47.589Z,99070.88
2019-05-11T15:56:19.041Z,99063.97
2019-05-11T15:58:48.592Z,99081.23
2019-05-11T16:01:18.659Z,99081.42
2019-05-11T16:03:49.637Z,99079.95
2019-05-11T16:06:18.572Z,99085.13
2019-05-11T16:08:47.242Z,99087.58
2019-05-11T16:11:18.031Z,99098.45
2019-05-11T16:13:48.221Z,99105.77
2019-05-11T16:16:15.930Z,99110.14
2019-05-11T16:18:44.358Z,99107.06
2019-05-11T16:21:12.811Z,99109.10
2019-05-11T16:23:41.230Z,99116.08
2019-05-11T16:26:09.634Z,99121.09
2019-05-11T16:28:38.459Z,99123.02
2019-05-11T16:31:09.093Z,99133.93
2019-05-11T16:33:37.161Z,99134.38
2019-05-11T16:36:05.630Z,99143.08
2019-05-11T16:38:34.035Z,99142.09
2019-05-11T16:41:02.443Z,99146.63
2019-05-11T16:43:30.864Z,99152.77
2019-05-11T16:45:59.376Z,99152.15
2019-05-11T16:48:28.590Z,99171.08
2019-05-11T16:50:57.996Z,99172.05
2019-05-11T16:53:28.441Z,99172.17
2019-05-11T16:55:57.730Z,99179.09
2019-05-11T16:58:27.886Z,99170.24
2019-05-11T17:00:58.290Z,99178.20
2019-05-11T17:03:27.884Z,99186.22
2019-05-11T17:05:58.712Z,99183.07
2019-05-11T17:08:27.694Z,99183.07
2019-05-11T17:10:59.600Z,99192.95
2019-05-11T17:13:28.702Z,99206.72
2019-05-11T17:15:58.264Z,99217.86
2019-05-11T17:18:28.301Z,99216.95
2019-05-11T17:20:58.475Z,99217.37
2019-05-11T17:23:30.540Z,99221.97
2019-05-11T17:25:57.861Z,99227.77
2019-05-11T17:28:26.479Z,99238.13
2019-05-11T17:30:54.990Z,99240.44
2019-05-11T17:33:23.408Z,99243.02
2019-05-11T17:35:52.010Z,99243.41
2019-05-11T17:38:20.448Z,99245.24
2019-05-11T17:40:48.876Z,99259.73
2019-05-11T17:43:18.146Z,99259.29
2019-05-11T17:45:48.032Z,99263.34
2019-05-11T17:48:17.843Z,99267.84
2019-05-11T17:50:46.359Z,99270.89
2019-05-11T17:53:14.786Z,99275.50
2019-05-11T17:55:43.223Z,99278.36
2019-05-11T17:58:11.687Z,99285.53
2019-05-11T18:00:40.152Z,99288.59
2019-05-11T18:03:11.447Z,99286.89
2019-05-11T18:05:38.880Z,99290.38
2019-05-11T18:08:08.741Z,99294.89
2019-05-11T18:10:38.474Z,99295.11
2019-05-11T18:13:07.025Z,99300.33
2019-05-11T18:15:37.898Z,99301.23
2019-05-11T18:20:32.910Z,99310.64
2019-05-11T18:23:01.299Z,99315.84
2019-05-11T18:25:29.800Z,99319.77
2019-05-11T18:27:59.143Z,99324.06
2019-05-11T18:30:29.298Z,99327.09
2019-05-11T18:32:59.530Z,99330.15
2019-05-11T18:35:28.029Z,99331.88
2019-05-11T18:37:56.413Z,99335.78
2019-05-11T18:40:24.869Z,99331.30
2019-05-11T18:42:53.295Z,99342.83
2019-05-11T18:45:21.719Z,99349.70
2019-05-11T18:47:50.145Z,99343.55
2019-05-11T18:50:30.092Z,99349.16
2019-05-11T18:52:49.314Z,99361.44
2019-05-11T18:55:18.891Z,99368.21
2019-05-11T18:57:48.958Z,99370.68
2019-05-11T19:00:19.340Z,99374.92
2019-05-11T19:02:49.479Z,99381.95
2019-05-11T19:05:18.371Z,99388.61
2019-05-11T19:07:48.204Z,99395.39
2019-05-11T19:10:17.168Z,99397.40
2019-05-11T19:12:45.619Z,99399.94
2019-05-11T19:15:14.803Z,99409.38
2019-05-11T19:17:43.822Z,99415.08
2019-05-11T19:20:13.280Z,99419.48
2019-05-11T19:22:41.868Z,99426.58
2019-05-11T19:25:10.437Z,99434.11
2019-05-11T19:27:38.949Z,99438.17
2019-05-11T19:30:08.292Z,99445.33
2019-05-11T19:32:38.336Z,99455.00
2019-05-11T19:35:09.005Z,99459.89
2019-05-11T19:37:38.689Z,99465.17
2019-05-11T19:40:09.052Z,99483.43
2019-05-11T19:42:54.743Z,99484.35
2019-05-11T19:45:23.322Z,99490.00
2019-05-11T19:47:51.785Z,99500.79
2019-05-11T19:50:20.189Z,99506.36
2019-05-11T19:52:48.625Z,99506.82
2019-05-11T19:55:17.950Z,99514.61
2019-05-11T19:57:48.223Z,99517.75
2019-05-11T20:00:18.708Z,99529.05
2019-05-11T20:02:47.120Z,99534.27
2019-05-11T20:05:18.130Z,99544.59
2019-05-11T20:07:48.304Z,99538.95
2019-05-11T20:10:18.574Z,99543.25
2019-05-11T20:12:48.089Z,99545.08
2019-05-11T20:15:18.431Z,99542.91
2019-05-11T20:17:48.629Z,99547.70
2019-05-11T20:20:18.420Z,99556.40
2019-05-11T20:22:48.275Z,99559.00
2019-05-11T20:25:18.545Z,99566.80
2019-05-11T20:27:48.280Z,99576.45
2019-05-11T20:30:18.417Z,99573.49
2019-05-11T20:32:48.349Z,99576.97
2019-05-11T20:35:17.218Z,99582.73
2019-05-11T20:37:45.621Z,99595.31
2019-05-11T20:40:14.602Z,99601.02
2019-05-11T20:42:42.998Z,99601.16
2019-05-11T20:45:11.625Z,99608.45
2019-05-11T20:47:40.031Z,99609.47
2019-05-11T20:50:08.588Z,99618.45
2019-05-11T20:52:38.953Z,99614.13
2019-05-11T20:55:08.862Z,99628.48
2019-05-11T20:57:39.188Z,99632.80
2019-05-11T21:00:09.153Z,99633.30
2019-05-11T21:02:58.756Z,99644.17
2019-05-11T21:05:27.490Z,99648.00
2019-05-11T21:07:57.802Z,99648.42
2019-05-11T21:10:28.165Z,99645.92
2019-05-11T21:12:57.714Z,99642.47
2019-05-11T21:15:28.198Z,99647.98
2019-05-11T21:17:58.445Z,99656.25
2019-05-11T21:20:28.701Z,99663.59
2019-05-11T21:22:58.029Z,99666.27
2019-05-11T21:25:28.764Z,99668.58
2019-05-11T21:27:57.951Z,99681.50
2019-05-11T21:30:26.499Z,99679.38
2019-05-11T21:32:54.901Z,99680.31
2019-05-11T21:35:23.377Z,99684.64
2019-05-11T21:37:51.904Z,99690.37
2019-05-11T21:40:20.348Z,99689.99
2019-05-11T21:42:48.765Z,99682.22
2019-05-11T21:45:18.258Z,99691.65
2019-05-11T21:47:48.951Z,99696.38
2019-05-11T21:50:19.341Z,99700.35
2019-05-11T21:52:48.411Z,99699.15
2019-05-11T21:55:17.055Z,99703.84
2019-05-11T21:57:49.454Z,99706.94
2019-05-11T22:00:15.768Z,99710.84
2019-05-11T22:02:44.222Z,99712.23
2019-05-11T22:05:12.795Z,99720.45
2019-05-11T22:07:41.864Z,99722.66
2019-05-11T22:10:11.089Z,99724.89
2019-05-11T22:12:39.554Z,99723.05
2019-05-11T22:15:09.411Z,99723.12
2019-05-11T22:17:39.250Z,99723.17
2019-05-11T22:20:08.510Z,99729.22
2019-05-11T22:22:39.073Z,99733.98
2019-05-11T22:25:08.038Z,99743.90
2019-05-11T22:27:38.897Z,99748.66
2019-05-11T22:30:08.528Z,99746.47
2019-05-11T22:32:38.325Z,99753.41
2019-05-11T22:35:08.093Z,99753.44
2019-05-11T22:37:38.605Z,99755.20
2019-05-11T22:40:08.289Z,99759.49
2019-05-11T22:42:37.076Z,99765.13
2019-05-11T22:45:08.396Z,99767.30
2019-05-11T22:47:39.377Z,99775.51
2019-05-11T22:50:10.443Z,99774.22
2019-05-11T22:52:40.612Z,99778.14
2019-05-11T22:55:29.993Z,99782.86
2019-05-11T22:57:58.486Z,99788.47
2019-05-11T23:00:44.144Z,99801.84
2019-05-11T23:03:12.728Z,99801.84
2019-05-11T23:05:42.194Z,99806.60
2019-05-11T23:08:10.937Z,99817.34
2019-05-11T23:10:39.425Z,99814.77
2019-05-11T23:13:11.152Z,99819.52
2019-05-11T23:15:40.282Z,99822.97
2019-05-11T23:18:08.698Z,99825.55
2019-05-11T23:20:38.559Z,99830.28
2019-05-11T23:23:08.831Z,99835.45
2019-05-11T23:25:37.512Z,99839.31
2019-05-11T23:28:05.941Z,99845.79
2019-05-11T23:30:34.418Z,99848.78
2019-05-11T23:33:02.833Z,99850.94
2019-05-11T23:35:32.216Z,99860.85
2019-05-11T23:38:00.635Z,99859.11
2019-05-11T23:40:29.033Z,99856.54
2019-05-11T23:42:57.952Z,99863.41
2019-05-11T23:45:27.999Z,99871.58
2019-05-11T23:47:58.860Z,99882.33
2019-05-11T23:50:28.185Z,99883.62
2019-05-11T23:53:06.112Z,99896.53
2019-05-11T23:55:28.980Z,99893.50
2019-05-11T23:57:57.626Z,99897.37
